createdAt,value
2023-03-19T00:00:53.621Z,54.06
2023-03-19T00:02:08.990Z,54.09
2023-03-19T00:03:24.919Z,53.88
2023-03-19T00:04:31.623Z,54.29
2023-03-19T00:05:35.337Z,54.44
2023-03-19T00:06:39.482Z,54.67
2023-03-19T00:07:43.716Z,54.58
2023-03-19T00:08:47.689Z,54.78
2023-03-19T00:09:51.206Z,55.13
2023-03-19T00:10:55.273Z,55.25
2023-03-19T00:11:59.179Z,55.22
2023-03-19T00:13:02.848Z,55.33
2023-03-19T00:14:07.164Z,55.50
2023-03-19T00:15:14.560Z,55.80
2023-03-19T00:16:18.488Z,55.68
2023-03-19T00:17:22.346Z,55.52
2023-03-19T00:18:26.121Z,55.62
2023-03-19T00:19:29.765Z,55.54
2023-03-19T00:20:33.347Z,55.26
2023-03-19T00:21:37.365Z,55.25
2023-03-19T00:22:41.213Z,55.30
2023-03-19T00:23:44.896Z,55.58
2023-03-19T00:24:48.745Z,55.53
2023-03-19T00:25:54.681Z,55.65
2023-03-19T00:26:58.387Z,55.75
2023-03-19T00:28:01.880Z,55.86
2023-03-19T00:29:09.820Z,55.84
2023-03-19T00:30:15.082Z,55.46
2023-03-19T00:31:18.789Z,55.75
2023-03-19T00:32:22.314Z,55.85
2023-03-19T00:33:26.776Z,55.72
2023-03-19T00:34:30.957Z,55.81
2023-03-19T00:35:35.040Z,55.89
2023-03-19T00:38:05.339Z,56.24
2023-03-19T00:39:09.292Z,56.25
2023-03-19T00:40:15.707Z,56.63
2023-03-19T00:41:20.869Z,56.21
2023-03-19T00:42:25.424Z,56.58
2023-03-19T00:43:29.172Z,56.71
2023-03-19T00:44:36.101Z,56.71
2023-03-19T00:45:49.345Z,56.43
2023-03-19T00:46:53.181Z,56.66
2023-03-19T00:47:57.882Z,56.63
2023-03-19T00:49:01.972Z,56.73
2023-03-19T00:50:11.516Z,56.89
2023-03-19T00:51:15.851Z,56.81
2023-03-19T00:52:21.000Z,56.74
2023-03-19T00:53:24.472Z,57.11
2023-03-19T00:54:28.702Z,57.23
2023-03-19T00:55:32.915Z,57.32
2023-03-19T00:56:38.401Z,57.46
2023-03-19T00:57:42.026Z,57.53
2023-03-19T00:58:47.255Z,57.82
2023-03-19T00:59:50.946Z,57.59
2023-03-19T01:00:56.379Z,57.91
2023-03-19T01:02:00.684Z,59.04
2023-03-19T01:03:06.526Z,58.80
2023-03-19T01:04:11.484Z,58.75
2023-03-19T01:05:15.223Z,58.63
2023-03-19T01:06:18.796Z,58.61
2023-03-19T01:07:30.906Z,59.33
2023-03-19T01:08:34.679Z,58.90
2023-03-19T01:09:38.102Z,59.09
2023-03-19T01:10:42.408Z,58.55
2023-03-19T01:11:46.366Z,58.97
2023-03-19T01:12:50.884Z,58.97
2023-03-19T01:13:54.405Z,59.02
2023-03-19T01:14:58.329Z,59.13
2023-03-19T01:16:02.333Z,58.96
2023-03-19T01:17:13.496Z,59.10
2023-03-19T01:18:17.447Z,59.02
2023-03-19T01:19:21.948Z,59.22
2023-03-19T01:20:27.677Z,58.76
2023-03-19T01:21:36.678Z,58.63
2023-03-19T01:22:51.249Z,59.12
2023-03-19T01:23:55.976Z,59.07
2023-03-19T01:24:59.649Z,59.20
2023-03-19T01:26:04.191Z,59.21
2023-03-19T01:27:13.193Z,59.05
2023-03-19T01:28:20.877Z,59.07
2023-03-19T01:29:24.536Z,59.18
2023-03-19T01:30:28.382Z,59.60
2023-03-19T01:31:32.653Z,60.05
2023-03-19T01:32:36.280Z,60.25
2023-03-19T01:33:40.294Z,60.28
2023-03-19T01:34:43.938Z,60.18
2023-03-19T01:35:51.439Z,60.25
2023-03-19T01:36:55.352Z,60.56
2023-03-19T01:37:58.858Z,60.21
2023-03-19T01:39:03.370Z,59.97
2023-03-19T01:40:12.562Z,59.73
2023-03-19T01:41:16.468Z,59.58
2023-03-19T01:42:21.893Z,59.61
2023-03-19T01:43:32.746Z,59.64
2023-03-19T01:44:39.831Z,59.17
2023-03-19T01:45:59.261Z,59.25
2023-03-19T01:47:43.027Z,59.79
2023-03-19T01:48:54.502Z,59.40
2023-03-19T01:49:59.968Z,59.49
2023-03-19T01:51:09.559Z,59.65
2023-03-19T01:52:16.085Z,59.50
2023-03-19T01:53:28.354Z,59.72
2023-03-19T01:54:34.216Z,59.76
2023-03-19T01:55:42.612Z,59.66
2023-03-19T01:56:53.066Z,60.38
2023-03-19T01:58:02.708Z,60.28
2023-03-19T01:59:38.194Z,60.72
2023-03-19T02:00:49.696Z,60.93
2023-03-19T02:02:13.638Z,61.91
2023-03-19T02:03:17.768Z,61.61
2023-03-19T02:04:34.216Z,61.31
2023-03-19T02:05:52.950Z,61.42
2023-03-19T02:07:09.641Z,61.41
2023-03-19T02:08:21.157Z,61.69
2023-03-19T02:09:30.756Z,61.43
2023-03-19T02:10:36.616Z,61.28
2023-03-19T02:11:42.129Z,61.05
2023-03-19T02:12:46.620Z,61.78
2023-03-19T02:13:50.183Z,62.03
2023-03-19T02:14:54.456Z,61.48
2023-03-19T02:16:02.707Z,61.36
2023-03-19T02:17:08.808Z,61.79
2023-03-19T02:18:13.701Z,62.69
2023-03-19T02:19:53.025Z,62.62
2023-03-19T02:21:14.734Z,62.30
2023-03-19T02:22:23.539Z,62.14
2023-03-19T02:24:01.926Z,61.93
2023-03-19T02:25:19.102Z,61.80
2023-03-19T02:26:28.904Z,61.95
2023-03-19T02:27:32.997Z,61.90
2023-03-19T02:28:42.614Z,62.50
2023-03-19T02:29:48.369Z,62.21
2023-03-19T02:30:54.186Z,62.18
2023-03-19T02:31:58.198Z,62.15
2023-03-19T02:33:01.929Z,62.61
2023-03-19T02:34:38.546Z,62.86
2023-03-19T02:35:50.296Z,62.49
2023-03-19T02:37:08.267Z,62.48
2023-03-19T02:38:13.615Z,62.13
2023-03-19T02:39:38.243Z,62.39
2023-03-19T02:41:09.473Z,63.28
2023-03-19T02:42:16.543Z,62.75
2023-03-19T02:43:22.565Z,62.49
2023-03-19T02:44:27.421Z,63.07
2023-03-19T02:45:32.285Z,62.81
2023-03-19T02:46:36.227Z,63.01
2023-03-19T02:47:41.087Z,62.91
2023-03-19T02:48:45.104Z,62.88
2023-03-19T02:49:49.324Z,62.95
2023-03-19T02:50:56.950Z,63.10
2023-03-19T02:52:04.165Z,64.01
2023-03-19T02:53:08.725Z,64.19
2023-03-19T02:54:12.699Z,63.86
2023-03-19T02:55:18.475Z,64.13
2023-03-19T02:56:22.314Z,64.09
2023-03-19T02:57:26.644Z,63.54
2023-03-19T02:58:30.424Z,63.49
2023-03-19T02:59:43.096Z,63.67
2023-03-19T03:02:53.389Z,63.77
2023-03-19T03:04:05.364Z,63.75
2023-03-19T03:05:10.149Z,63.66
2023-03-19T03:06:14.209Z,63.59
2023-03-19T03:07:19.341Z,63.62
2023-03-19T03:08:22.983Z,63.66
2023-03-19T03:09:27.263Z,63.61
2023-03-19T03:10:33.604Z,63.80
2023-03-19T03:11:37.368Z,63.96
2023-03-19T03:12:40.866Z,63.74
2023-03-19T03:13:44.789Z,64.39
2023-03-19T03:14:48.445Z,64.43
2023-03-19T03:15:53.636Z,64.08
2023-03-19T03:16:57.674Z,63.93
2023-03-19T03:18:01.433Z,64.75
2023-03-19T03:19:06.038Z,64.34
2023-03-19T03:20:11.592Z,64.42
2023-03-19T03:21:15.488Z,64.00
2023-03-19T03:22:19.211Z,63.97
2023-03-19T03:23:23.060Z,64.09
2023-03-19T03:24:27.888Z,63.72
2023-03-19T03:25:31.685Z,64.02
2023-03-19T03:26:38.758Z,63.99
2023-03-19T03:27:42.989Z,63.65
2023-03-19T03:28:46.568Z,63.52
2023-03-19T03:29:50.814Z,63.70
2023-03-19T03:31:01.215Z,64.10
2023-03-19T03:32:04.922Z,64.17
2023-03-19T03:33:08.629Z,64.02
2023-03-19T03:34:12.362Z,64.56
2023-03-19T03:35:21.878Z,64.24
2023-03-19T03:36:25.811Z,64.33
2023-03-19T03:37:30.390Z,64.58
2023-03-19T03:38:34.869Z,64.23
2023-03-19T03:39:38.552Z,64.23
2023-03-19T03:40:42.238Z,64.29
2023-03-19T03:41:46.546Z,64.43
2023-03-19T03:42:50.303Z,64.75
2023-03-19T03:43:54.110Z,64.87
2023-03-19T03:45:00.954Z,64.54
2023-03-19T03:46:05.279Z,64.17
2023-03-19T03:47:09.581Z,64.13
2023-03-19T03:48:14.915Z,64.08
2023-03-19T03:49:18.603Z,64.26
2023-03-19T03:50:22.304Z,64.45
2023-03-19T03:51:26.155Z,63.96
2023-03-19T03:52:31.512Z,63.73
2023-03-19T03:53:35.794Z,63.79
2023-03-19T03:54:40.176Z,63.93
2023-03-19T03:55:44.212Z,64.27
2023-03-19T03:56:47.988Z,63.95
2023-03-19T03:57:52.142Z,64.11
2023-03-19T03:58:55.840Z,64.53
2023-03-19T03:59:59.806Z,64.40
2023-03-19T04:01:04.246Z,64.13
2023-03-19T04:02:08.850Z,64.30
2023-03-19T04:03:12.762Z,64.28
2023-03-19T04:04:16.968Z,64.62
2023-03-19T04:05:20.605Z,64.45
2023-03-19T04:06:25.735Z,64.54
2023-03-19T04:07:29.884Z,64.14
2023-03-19T04:08:34.109Z,64.19
2023-03-19T04:09:37.915Z,64.57
2023-03-19T04:10:43.856Z,64.25
2023-03-19T04:11:51.287Z,64.25
2023-03-19T04:12:55.234Z,64.26
2023-03-19T04:14:01.139Z,63.82
2023-03-19T04:15:11.104Z,63.69
2023-03-19T04:16:15.654Z,63.78
2023-03-19T04:17:19.212Z,64.01
2023-03-19T04:18:22.903Z,63.85
2023-03-19T04:19:27.273Z,63.82
2023-03-19T04:20:31.499Z,63.85
2023-03-19T04:21:35.441Z,63.58
2023-03-19T04:22:39.173Z,63.70
2023-03-19T04:23:42.944Z,63.62
2023-03-19T04:24:49.470Z,63.60
2023-03-19T04:25:53.040Z,63.79
2023-03-19T04:26:56.860Z,63.66
2023-03-19T04:28:00.498Z,63.68
2023-03-19T04:29:04.884Z,63.49
2023-03-19T04:30:11.572Z,63.58
2023-03-19T04:31:15.589Z,63.93
2023-03-19T04:32:19.164Z,63.81
2023-03-19T04:33:23.469Z,63.95
2023-03-19T04:34:27.192Z,64.14
2023-03-19T04:35:31.916Z,64.38
2023-03-19T04:36:35.954Z,63.97
2023-03-19T04:37:40.088Z,64.23
2023-03-19T04:38:43.695Z,64.44
2023-03-19T04:39:47.679Z,64.31
2023-03-19T04:40:51.958Z,64.24
2023-03-19T04:41:56.756Z,64.31
2023-03-19T04:43:00.245Z,64.20
2023-03-19T04:44:03.855Z,64.22
2023-03-19T04:45:08.755Z,64.29
2023-03-19T04:46:12.367Z,64.38
2023-03-19T04:47:16.081Z,64.82
2023-03-19T04:48:19.934Z,64.80
2023-03-19T04:49:24.687Z,65.02
2023-03-19T04:50:29.350Z,65.21
2023-03-19T04:51:33.342Z,64.86
2023-03-19T04:52:39.772Z,65.27
2023-03-19T04:53:43.667Z,64.97
2023-03-19T04:54:47.371Z,64.77
2023-03-19T04:55:51.490Z,64.98
2023-03-19T04:56:55.207Z,64.44
2023-03-19T04:57:58.698Z,64.69
2023-03-19T04:59:02.204Z,64.53
2023-03-19T05:00:07.030Z,64.81
2023-03-19T05:01:10.672Z,64.79
2023-03-19T05:02:14.252Z,65.09
2023-03-19T05:03:17.888Z,65.21
2023-03-19T05:04:21.474Z,65.31
2023-03-19T05:05:25.343Z,65.37
2023-03-19T05:06:29.090Z,65.38
2023-03-19T05:07:33.581Z,65.39
2023-03-19T05:08:37.506Z,65.19
2023-03-19T05:09:43.354Z,65.00
2023-03-19T05:10:47.344Z,65.66
2023-03-19T05:11:51.778Z,65.24
2023-03-19T05:12:55.839Z,65.12
2023-03-19T05:13:59.759Z,65.14
2023-03-19T05:15:05.410Z,65.03
2023-03-19T05:16:09.648Z,65.18
2023-03-19T05:17:15.340Z,65.14
2023-03-19T05:18:19.134Z,65.04
2023-03-19T05:19:23.392Z,65.09
2023-03-19T05:20:27.797Z,65.18
2023-03-19T05:21:31.647Z,65.45
2023-03-19T05:22:35.395Z,65.46
2023-03-19T05:23:40.358Z,65.16
2023-03-19T05:24:44.241Z,65.16
2023-03-19T05:25:48.738Z,65.35
2023-03-19T05:26:52.626Z,64.98
2023-03-19T05:27:56.695Z,65.09
2023-03-19T05:29:00.603Z,65.41
2023-03-19T05:30:06.546Z,65.35
2023-03-19T05:31:11.012Z,65.01
2023-03-19T05:32:15.993Z,65.21
2023-03-19T05:33:19.928Z,64.85
2023-03-19T05:34:23.704Z,65.04
2023-03-19T05:35:29.615Z,65.09
2023-03-19T05:36:33.728Z,64.88
2023-03-19T05:37:37.272Z,64.83
2023-03-19T05:38:41.343Z,64.94
2023-03-19T05:39:45.213Z,64.82
2023-03-19T05:40:48.922Z,65.05
2023-03-19T05:41:53.207Z,64.89
2023-03-19T05:42:56.694Z,64.71
2023-03-19T05:44:00.986Z,64.81
2023-03-19T05:45:05.797Z,64.80
2023-03-19T05:46:09.417Z,64.71
2023-03-19T05:47:13.498Z,64.49
2023-03-19T05:48:17.666Z,64.51
2023-03-19T05:49:22.241Z,64.62
2023-03-19T05:50:25.932Z,64.24
2023-03-19T05:51:29.537Z,64.13
2023-03-19T05:52:33.902Z,63.90
2023-03-19T05:53:38.201Z,63.81
2023-03-19T05:54:41.804Z,63.85
2023-03-19T05:55:45.869Z,63.68
2023-03-19T05:56:49.617Z,63.68
2023-03-19T05:57:53.936Z,63.79
2023-03-19T05:58:57.479Z,63.53
2023-03-19T06:00:01.923Z,63.28
2023-03-19T06:01:05.718Z,63.24
2023-03-19T06:02:09.957Z,63.19
2023-03-19T06:03:14.070Z,63.43
2023-03-19T06:04:17.821Z,63.26
2023-03-19T06:05:22.353Z,62.72
2023-03-19T06:06:27.062Z,62.79
2023-03-19T06:07:31.586Z,62.37
2023-03-19T06:08:35.948Z,62.20
2023-03-19T06:09:41.205Z,62.12
2023-03-19T06:10:45.633Z,61.69
2023-03-19T06:11:49.348Z,61.76
2023-03-19T06:12:53.452Z,61.46
2023-03-19T06:13:57.249Z,61.12
2023-03-19T06:15:01.757Z,60.54
2023-03-19T06:16:06.308Z,59.89
2023-03-19T06:17:09.978Z,59.58
2023-03-19T06:18:13.778Z,59.30
2023-03-19T06:19:17.704Z,58.91
2023-03-19T06:20:22.010Z,58.46
2023-03-19T06:21:29.698Z,58.25
2023-03-19T06:22:33.336Z,57.39
2023-03-19T06:23:36.994Z,57.61
2023-03-19T06:24:41.685Z,57.13
2023-03-19T06:25:45.673Z,56.10
2023-03-19T06:26:49.308Z,54.42
2023-03-19T06:27:52.991Z,54.82
2023-03-19T06:28:56.765Z,54.09
2023-03-19T06:30:00.969Z,53.47
2023-03-19T06:31:04.900Z,51.51
2023-03-19T06:32:09.828Z,52.14
2023-03-19T06:33:14.583Z,51.28
2023-03-19T06:34:18.444Z,50.89
2023-03-19T06:35:22.570Z,50.03
2023-03-19T06:36:26.361Z,49.38
2023-03-19T06:37:30.521Z,47.33
2023-03-19T06:38:36.148Z,47.77
2023-03-19T06:39:39.904Z,45.61
2023-03-19T06:40:43.732Z,47.17
2023-03-19T06:41:47.404Z,46.56
2023-03-19T06:42:51.290Z,45.91
2023-03-19T06:43:55.551Z,45.27
2023-03-19T06:44:59.042Z,44.59
2023-03-19T06:46:08.929Z,43.59
2023-03-19T06:47:15.859Z,42.28
2023-03-19T06:48:19.638Z,42.53
2023-03-19T06:49:23.852Z,40.77
2023-03-19T06:50:27.789Z,40.38
2023-03-19T06:51:31.765Z,40.42
2023-03-19T06:52:35.779Z,40.73
2023-03-19T06:53:39.887Z,39.83
2023-03-19T06:54:43.408Z,39.39
2023-03-19T06:55:47.784Z,39.16
2023-03-19T06:56:51.619Z,38.50
2023-03-19T06:57:55.037Z,38.09
2023-03-19T06:58:58.496Z,37.24
2023-03-19T07:00:02.717Z,36.33
2023-03-19T07:01:06.263Z,35.68
2023-03-19T07:02:13.045Z,35.58
2023-03-19T07:03:16.729Z,35.41
2023-03-19T07:04:20.614Z,34.77
2023-03-19T07:05:24.603Z,34.66
2023-03-19T07:06:28.222Z,34.41
2023-03-19T07:07:32.667Z,33.54
2023-03-19T07:08:36.398Z,33.11
2023-03-19T07:09:40.790Z,33.11
2023-03-19T07:10:47.776Z,32.15
2023-03-19T07:11:51.299Z,31.92
2023-03-19T07:12:55.347Z,31.74
2023-03-19T07:13:58.951Z,31.58
2023-03-19T07:15:02.676Z,30.71
2023-03-19T07:16:07.318Z,29.91
2023-03-19T07:17:11.790Z,30.28
2023-03-19T07:18:15.802Z,30.72
2023-03-19T07:19:19.402Z,29.83
2023-03-19T07:20:23.084Z,29.99
2023-03-19T07:21:27.157Z,29.45
2023-03-19T07:22:31.552Z,28.84
2023-03-19T07:23:36.280Z,27.89
2023-03-19T07:24:39.961Z,28.29
2023-03-19T07:25:43.801Z,28.04
2023-03-19T07:26:48.241Z,27.81
2023-03-19T07:27:54.817Z,26.69
2023-03-19T07:28:59.884Z,26.36
2023-03-19T07:30:03.750Z,26.21
2023-03-19T07:31:07.308Z,26.61
2023-03-19T07:32:12.605Z,26.24
2023-03-19T07:33:16.800Z,25.69
2023-03-19T07:34:20.885Z,25.03
2023-03-19T07:35:24.851Z,25.72
2023-03-19T07:36:29.293Z,25.27
2023-03-19T07:37:33.518Z,24.16
2023-03-19T07:38:37.224Z,24.65
2023-03-19T07:39:42.133Z,23.87
2023-03-19T07:41:01.029Z,24.79
2023-03-19T07:42:06.941Z,24.45
2023-03-19T07:43:10.841Z,24.78
2023-03-19T07:44:16.582Z,23.84
2023-03-19T07:45:20.648Z,24.23
2023-03-19T07:46:24.350Z,23.96
2023-03-19T07:47:29.624Z,23.10
2023-03-19T07:48:33.502Z,23.55
2023-03-19T07:49:37.604Z,23.28
2023-03-19T07:50:41.322Z,23.05
2023-03-19T07:51:44.958Z,22.79
2023-03-19T07:52:51.692Z,22.41
2023-03-19T07:53:55.859Z,22.06
2023-03-19T07:54:59.433Z,21.67
2023-03-19T07:56:03.233Z,21.54
2023-03-19T07:57:07.117Z,21.75
2023-03-19T07:58:11.709Z,21.58
2023-03-19T07:59:15.409Z,21.22
2023-03-19T08:00:19.663Z,21.49
2023-03-19T08:01:23.816Z,20.75
2023-03-19T08:02:33.342Z,21.14
2023-03-19T08:03:37.250Z,20.69
2023-03-19T08:04:42.248Z,20.33
2023-03-19T08:05:51.505Z,20.91
2023-03-19T08:06:55.534Z,20.81
2023-03-19T08:07:59.341Z,20.43
2023-03-19T08:09:02.905Z,19.98
2023-03-19T08:10:08.154Z,20.77
2023-03-19T08:11:11.855Z,19.96
2023-03-19T08:12:16.390Z,19.43
2023-03-19T08:13:20.560Z,20.01
2023-03-19T08:14:24.304Z,19.54
2023-03-19T08:15:28.725Z,20.01
2023-03-19T08:16:33.185Z,19.61
2023-03-19T08:17:39.152Z,20.18
2023-03-19T08:18:42.767Z,20.20
2023-03-19T08:19:46.968Z,19.78
2023-03-19T08:20:50.936Z,19.40
2023-03-19T08:21:55.077Z,19.35
2023-03-19T08:22:59.078Z,19.63
2023-03-19T08:24:04.948Z,19.17
2023-03-19T08:25:10.075Z,19.09
2023-03-19T08:26:13.656Z,18.99
2023-03-19T08:27:20.786Z,18.86
2023-03-19T08:28:24.563Z,18.22
2023-03-19T08:29:28.980Z,17.91
2023-03-19T08:30:33.348Z,17.96
2023-03-19T08:31:37.410Z,17.70
2023-03-19T08:32:41.484Z,17.71
2023-03-19T08:33:45.286Z,17.43
2023-03-19T08:34:49.876Z,17.51
2023-03-19T08:35:53.620Z,17.37
2023-03-19T08:36:57.270Z,16.96
2023-03-19T08:38:00.981Z,16.49
2023-03-19T08:39:05.619Z,16.74
2023-03-19T08:40:10.216Z,16.61
2023-03-19T08:41:14.029Z,16.14
2023-03-19T08:42:20.542Z,15.70
2023-03-19T08:43:25.209Z,15.56
2023-03-19T08:44:31.954Z,16.30
2023-03-19T08:45:35.648Z,15.79
2023-03-19T08:46:40.047Z,16.41
2023-03-19T08:47:44.692Z,15.51
2023-03-19T08:48:48.565Z,15.51
2023-03-19T08:49:53.642Z,15.75
2023-03-19T08:51:01.984Z,15.71
2023-03-19T08:52:09.383Z,15.85
2023-03-19T08:53:13.529Z,16.35
2023-03-19T08:54:18.125Z,16.71
2023-03-19T08:55:22.302Z,16.42
2023-03-19T08:56:26.414Z,16.41
2023-03-19T08:57:35.030Z,16.81
2023-03-19T08:58:41.703Z,16.72
2023-03-19T08:59:46.059Z,16.86
2023-03-19T09:00:51.057Z,17.49
2023-03-19T09:01:55.333Z,17.25
2023-03-19T09:03:01.844Z,17.79
2023-03-19T09:04:06.367Z,17.87
2023-03-19T09:05:10.260Z,17.77
2023-03-19T09:06:14.901Z,18.19
2023-03-19T09:07:19.088Z,18.06
2023-03-19T09:08:22.722Z,18.74
2023-03-19T09:09:26.870Z,18.84
2023-03-19T09:10:30.711Z,19.20
2023-03-19T09:11:34.572Z,19.55
2023-03-19T09:12:39.112Z,19.15
2023-03-19T09:13:43.288Z,18.93
2023-03-19T09:14:47.498Z,18.99
2023-03-19T09:15:53.075Z,19.12
2023-03-19T09:16:57.681Z,18.64
2023-03-19T09:18:04.758Z,18.61
2023-03-19T09:19:09.657Z,18.38
2023-03-19T09:20:14.370Z,18.72
2023-03-19T09:21:18.799Z,18.86
2023-03-19T09:22:25.412Z,19.13
2023-03-19T09:23:29.623Z,19.46
2023-03-19T09:24:33.531Z,19.19
2023-03-19T09:25:37.370Z,19.43
2023-03-19T09:26:41.224Z,19.39
2023-03-19T09:27:45.542Z,19.67
2023-03-19T09:28:49.323Z,20.10
2023-03-19T09:29:53.249Z,20.31
2023-03-19T09:30:57.307Z,20.43
2023-03-19T09:32:01.130Z,20.92
2023-03-19T09:33:06.714Z,21.14
2023-03-19T09:34:11.228Z,21.39
2023-03-19T09:35:14.970Z,21.13
2023-03-19T09:36:18.644Z,21.12
2023-03-19T09:37:22.508Z,21.34
2023-03-19T09:38:26.986Z,21.68
2023-03-19T09:39:30.965Z,21.86
2023-03-19T09:41:15.647Z,22.10
2023-03-19T09:42:46.147Z,22.44
2023-03-19T09:44:30.298Z,22.57
2023-03-19T09:45:35.460Z,22.80
2023-03-19T09:46:56.873Z,23.38
2023-03-19T09:48:14.008Z,23.96
2023-03-19T09:49:23.584Z,23.85
2023-03-19T09:50:32.745Z,23.98
2023-03-19T09:51:50.396Z,23.98
2023-03-19T09:53:39.574Z,24.83
2023-03-19T09:54:52.734Z,24.86
2023-03-19T09:56:00.746Z,24.58
2023-03-19T09:57:05.036Z,24.29
2023-03-19T09:58:21.986Z,24.90
2023-03-19T09:59:28.894Z,25.58
2023-03-19T10:00:39.526Z,25.66
2023-03-19T10:02:15.410Z,25.33
2023-03-19T10:03:33.734Z,25.46
2023-03-19T10:04:59.247Z,25.34
2023-03-19T10:06:35.601Z,25.38
2023-03-19T10:08:14.548Z,25.69
2023-03-19T10:09:43.956Z,25.55
2023-03-19T10:10:56.387Z,25.69
2023-03-19T10:12:43.827Z,25.89
2023-03-19T10:14:29.189Z,25.93
2023-03-19T10:15:38.138Z,25.80
2023-03-19T10:16:48.539Z,25.99
2023-03-19T10:18:05.428Z,26.18
2023-03-19T10:19:16.443Z,26.70
2023-03-19T10:20:54.578Z,27.56
2023-03-19T10:22:08.613Z,27.31
2023-03-19T10:23:42.270Z,27.10
2023-03-19T10:24:48.881Z,27.31
2023-03-19T10:26:00.483Z,26.85
2023-03-19T10:27:23.963Z,27.45
2023-03-19T10:28:30.486Z,27.34
2023-03-19T10:29:35.776Z,27.32
2023-03-19T10:30:50.257Z,27.79
2023-03-19T10:32:19.728Z,27.55
2023-03-19T10:33:29.069Z,28.05
2023-03-19T10:34:42.268Z,27.59
2023-03-19T10:35:53.454Z,27.92
2023-03-19T10:37:17.151Z,27.71
2023-03-19T10:38:26.534Z,27.27
2023-03-19T10:39:38.155Z,27.38
2023-03-19T10:41:02.532Z,27.82
2023-03-19T10:42:43.100Z,27.74
2023-03-19T10:44:29.827Z,27.61
2023-03-19T10:45:38.747Z,27.36
2023-03-19T10:46:42.968Z,27.53
2023-03-19T10:47:47.081Z,27.92
2023-03-19T10:48:54.456Z,28.28
2023-03-19T10:49:58.298Z,27.78
2023-03-19T10:51:06.256Z,27.95
2023-03-19T10:52:37.863Z,28.06
2023-03-19T10:53:41.877Z,27.70
2023-03-19T10:54:46.659Z,27.75
2023-03-19T10:56:17.276Z,27.97
2023-03-19T10:57:27.695Z,27.92
2023-03-19T10:58:35.997Z,27.85
2023-03-19T10:59:39.711Z,28.29
2023-03-19T11:00:48.392Z,28.33
2023-03-19T11:02:16.299Z,28.72
2023-03-19T11:03:49.513Z,28.47
2023-03-19T11:05:19.440Z,28.37
2023-03-19T11:06:38.785Z,27.94
2023-03-19T11:07:43.013Z,27.96
2023-03-19T11:08:59.271Z,27.68
2023-03-19T11:10:03.691Z,27.59
2023-03-19T11:11:23.029Z,27.59
2023-03-19T11:12:35.390Z,27.55
2023-03-19T11:13:39.447Z,27.48
2023-03-19T11:14:46.518Z,27.95
2023-03-19T11:15:52.349Z,27.81
2023-03-19T11:17:27.624Z,27.97
2023-03-19T11:18:40.452Z,27.68
2023-03-19T11:19:58.937Z,27.57
2023-03-19T11:21:21.746Z,27.46
2023-03-19T11:22:37.772Z,27.87
2023-03-19T11:23:42.893Z,27.47
2023-03-19T11:24:56.761Z,27.43
2023-03-19T11:26:04.008Z,26.89
2023-03-19T11:27:12.155Z,27.09
2023-03-19T11:28:21.550Z,27.29
2023-03-19T11:29:29.133Z,27.06
2023-03-19T11:31:03.743Z,26.65
2023-03-19T11:32:29.054Z,26.67
2023-03-19T11:33:47.603Z,26.82
2023-03-19T11:35:16.165Z,26.45
2023-03-19T11:37:00.976Z,26.31
2023-03-19T11:38:16.278Z,25.98
2023-03-19T11:39:48.942Z,26.28
2023-03-19T11:41:12.104Z,26.10
2023-03-19T11:42:45.482Z,26.24
2023-03-19T11:44:35.722Z,26.24
2023-03-19T11:46:04.313Z,25.98
2023-03-19T11:47:27.498Z,25.81
2023-03-19T11:49:08.258Z,25.62
2023-03-19T11:50:18.652Z,25.54
2023-03-19T11:52:04.593Z,25.78
2023-03-19T11:53:48.424Z,25.94
2023-03-19T11:55:17.639Z,25.68
2023-03-19T11:56:39.994Z,25.91
2023-03-19T11:58:03.978Z,26.04
2023-03-19T11:59:13.189Z,26.19
2023-03-19T12:00:29.868Z,26.04
2023-03-19T12:02:07.767Z,26.70
2023-03-19T12:03:53.778Z,26.13
2023-03-19T12:05:26.850Z,25.94
2023-03-19T12:06:49.686Z,26.20
2023-03-19T12:08:42.322Z,25.93
2023-03-19T12:10:37.087Z,26.00
2023-03-19T12:12:27.604Z,25.76
2023-03-19T12:14:00.650Z,25.66
2023-03-19T12:15:54.733Z,25.73
2023-03-19T12:17:23.284Z,25.74
2023-03-19T12:19:33.046Z,25.74
2023-03-19T12:21:04.122Z,25.82
2023-03-19T12:22:43.504Z,25.78
2023-03-19T12:24:44.596Z,25.90
2023-03-19T12:26:05.347Z,26.28
2023-03-19T12:27:28.115Z,26.28
2023-03-19T12:29:00.317Z,26.59
2023-03-19T12:30:22.481Z,26.30
2023-03-19T12:32:16.010Z,26.34
2023-03-19T12:34:10.207Z,26.26
2023-03-19T12:35:31.001Z,26.23
2023-03-19T12:36:45.768Z,26.18
2023-03-19T12:38:20.492Z,26.05
2023-03-19T12:39:35.706Z,25.99
2023-03-19T12:40:54.649Z,26.08
2023-03-19T12:42:02.778Z,26.09
2023-03-19T12:43:17.858Z,25.97
2023-03-19T12:44:24.349Z,25.84
2023-03-19T12:45:42.756Z,26.22
2023-03-19T12:47:17.464Z,26.07
2023-03-19T12:48:33.116Z,26.54
2023-03-19T12:49:55.006Z,25.75
2023-03-19T12:51:09.650Z,25.84
2023-03-19T12:52:35.954Z,25.71
2023-03-19T12:54:05.827Z,25.83
2023-03-19T12:55:43.060Z,25.95
2023-03-19T12:57:14.159Z,26.07
2023-03-19T12:58:51.234Z,26.10
2023-03-19T13:00:20.376Z,26.05
2023-03-19T13:01:35.279Z,25.92
2023-03-19T13:03:03.547Z,25.79
2023-03-19T13:04:21.768Z,26.05
2023-03-19T13:05:47.214Z,25.96
2023-03-19T13:07:07.658Z,25.65
2023-03-19T13:08:28.653Z,25.96
2023-03-19T13:09:57.873Z,26.09
2023-03-19T13:11:12.792Z,26.29
2023-03-19T13:12:25.424Z,26.31
2023-03-19T13:14:09.654Z,26.45
2023-03-19T13:15:48.215Z,26.23
2023-03-19T13:17:30.402Z,26.25
2023-03-19T13:18:56.338Z,26.28
2023-03-19T13:20:13.804Z,26.20
2023-03-19T13:21:27.375Z,26.45
2023-03-19T13:22:37.888Z,26.53
2023-03-19T13:23:46.635Z,26.66
2023-03-19T13:24:53.512Z,26.50
2023-03-19T13:26:00.790Z,26.40
2023-03-19T13:27:08.472Z,26.47
2023-03-19T13:28:28.347Z,26.19
2023-03-19T13:29:37.042Z,26.48
2023-03-19T13:31:20.802Z,26.22
2023-03-19T13:32:39.594Z,26.38
2023-03-19T13:33:55.923Z,26.69
2023-03-19T13:35:53.233Z,26.48
2023-03-19T13:37:18.908Z,26.42
2023-03-19T13:38:51.049Z,26.30
2023-03-19T13:39:55.469Z,26.53
2023-03-19T13:41:32.984Z,26.41
2023-03-19T13:42:43.322Z,26.61
2023-03-19T13:43:54.883Z,26.28
2023-03-19T13:45:18.923Z,26.46
2023-03-19T13:46:39.936Z,26.66
2023-03-19T13:47:44.768Z,26.48
2023-03-19T13:48:53.784Z,26.47
2023-03-19T13:50:11.816Z,26.69
2023-03-19T13:51:19.125Z,26.38
2023-03-19T13:52:25.970Z,26.55
2023-03-19T13:53:29.627Z,26.49
2023-03-19T13:54:38.735Z,26.51
2023-03-19T13:55:59.748Z,26.49
2023-03-19T13:57:20.724Z,26.57
2023-03-19T13:58:47.693Z,26.40
2023-03-19T13:59:52.423Z,26.52
2023-03-19T14:00:58.977Z,26.54
2023-03-19T14:02:27.141Z,26.61
2023-03-19T14:03:40.959Z,26.56
2023-03-19T14:05:07.240Z,26.69
2023-03-19T14:06:37.376Z,26.38
2023-03-19T14:07:46.202Z,26.41
2023-03-19T14:08:51.917Z,26.28
2023-03-19T14:10:00.190Z,26.49
2023-03-19T14:11:06.114Z,26.33
2023-03-19T14:12:21.764Z,26.14
2023-03-19T14:13:43.741Z,26.59
2023-03-19T14:14:55.080Z,26.56
2023-03-19T14:16:12.030Z,27.05
2023-03-19T14:17:25.098Z,26.96
2023-03-19T14:18:31.996Z,26.65
2023-03-19T14:19:43.095Z,26.25
2023-03-19T14:21:12.800Z,26.50
2023-03-19T14:22:56.757Z,26.45
2023-03-19T14:26:18.092Z,26.82
2023-03-19T14:27:33.763Z,26.62
2023-03-19T14:29:05.783Z,26.73
2023-03-19T14:30:22.413Z,26.75
2023-03-19T14:31:43.419Z,26.95
2023-03-19T14:32:51.418Z,26.75
2023-03-19T14:34:21.215Z,26.89
2023-03-19T14:35:27.183Z,26.58
2023-03-19T14:36:36.573Z,26.62
2023-03-19T14:37:46.821Z,26.77
2023-03-19T14:38:58.376Z,26.68
2023-03-19T14:40:21.543Z,26.73
2023-03-19T14:41:33.316Z,26.69
2023-03-19T14:43:14.010Z,26.74
2023-03-19T14:45:20.199Z,26.97
2023-03-19T14:47:02.356Z,26.72
2023-03-19T14:48:38.611Z,26.74
2023-03-19T14:50:19.740Z,27.05
2023-03-19T14:51:29.204Z,26.97
2023-03-19T14:52:40.838Z,26.79
2023-03-19T14:53:59.213Z,27.19
2023-03-19T14:55:13.142Z,26.92
2023-03-19T14:56:36.987Z,27.09
2023-03-19T14:57:40.554Z,27.02
2023-03-19T14:58:55.824Z,27.19
2023-03-19T14:59:59.980Z,27.12
2023-03-19T15:01:08.104Z,27.05
2023-03-19T15:02:39.389Z,27.24
2023-03-19T15:03:43.329Z,27.24
2023-03-19T15:04:49.581Z,27.13
2023-03-19T15:06:02.431Z,27.39
2023-03-19T15:07:19.853Z,27.17
2023-03-19T15:08:26.699Z,27.00
2023-03-19T15:09:33.920Z,27.35
2023-03-19T15:11:16.262Z,27.19
2023-03-19T15:13:09.616Z,27.35
2023-03-19T15:14:48.967Z,27.54